Bookmark and Share
Track history (hours):
 

Yahata Maru

Last reported at 2014-Apr-20 17:09 UTC. Time now 2014-Apr-21 10:13 UTC.
Position N 34°53' E 139°12'.

Length 149 m; draft 4.7 m.

Type: Other ship. MMSI: 431400594.

NotesDate/timePositionNaut miles runAvg speedWind from/ knotsBaromVisibWave heightAir tempDewpointWater temp
2014-Apr-20 17:09N 34°53' E 139°12'910.1
2014-Apr-20 16:13N 34°57' E 139°22'710.2
2014-Apr-20 15:31N 35°01' E 139°29'9 9.8
2014-Apr-20 14:33N 35°06' E 139°39'10 9.6
2014-Apr-20 13:33N 35°13' E 139°46'10 9.7
2014-Apr-20 12:33N 35°23' E 139°42'5 5.4
2014-Apr-20 11:33N 35°28' E 139°43'0 0.0
2014-Apr-20 10:33N 35°28' E 139°43'0 0.0
2014-Apr-20 09:33N 35°28' E 139°43'0 0.0
2014-Apr-20 08:33N 35°28' E 139°43'0 0.0
2014-Apr-20 07:33N 35°28' E 139°43'0 0.0
2014-Apr-20 06:33N 35°28' E 139°43'0 0.0
2014-Apr-20 05:33N 35°28' E 139°43'0 0.1
2014-Apr-20 04:33N 35°28' E 139°43'7 6.9
2014-Apr-20 03:33N 35°29' E 139°51'10 9.8
2014-Apr-20 02:33N 35°34' E 140°02'4 4.0
2014-Apr-20 01:32N 35°33' E 140°07'0 0.0
2014-Apr-20 00:32N 35°33' E 140°07'0 0.0
2014-Apr-19 23:32N 35°33' E 140°07'0 0.0
2014-Apr-19 22:32N 35°33' E 140°07'0 0.0
2014-Apr-19 21:29N 35°33' E 140°07'0 0.0
2014-Apr-19 20:32N 35°33' E 140°07'0 0.0
2014-Apr-19 19:29N 35°33' E 140°07'0 0.0
2014-Apr-19 18:32N 35°33' E 140°07'0 0.0
2014-Apr-19 17:32N 35°33' E 140°07'0 0.0
2014-Apr-19 16:32N 35°33' E 140°07'1 1.5
2014-Apr-19 15:33N 35°33' E 140°05'9 8.8
2014-Apr-19 14:33N 35°31' E 139°55'9 8.8
2014-Apr-19 13:33N 35°27' E 139°45'2 1.9
2014-Apr-19 12:33N 35°28' E 139°43'0 0.0
2014-Apr-19 11:30N 35°28' E 139°43'0 0.0
2014-Apr-19 10:33N 35°28' E 139°43'0 0.0
2014-Apr-19 09:33N 35°28' E 139°43'0 0.2
2014-Apr-19 08:33N 35°28' E 139°43'6 5.7
2014-Apr-19 07:33N 35°23' E 139°38'0 0.0
2014-Apr-19 06:31N 35°23' E 139°38'0 0.0
2014-Apr-19 05:31N 35°23' E 139°38'1 1.1
2014-Apr-19 04:33N 35°24' E 139°40'9 9.1
2014-Apr-19 03:33N 35°16' E 139°46'8 7.8
2014-Apr-19 02:33N 35°08' E 139°46'9 9.0
2014-Apr-19 01:33N 35°02' E 139°38'9 9.0
2014-Apr-19 00:33N 34°56' E 139°30'  
2014-Apr-14 22:33N 34°36' E 134°55'1110.6
2014-Apr-14 21:34N 34°36' E 135°08'9 9.2
2014-Apr-14 20:33N 34°40' E 135°18'4 4.3
2014-Apr-14 19:34N 34°43' E 135°21'0 0.0
2014-Apr-14 18:30N 34°43' E 135°21'0 0.0
2014-Apr-14 17:30N 34°43' E 135°21'0 0.0
2014-Apr-14 16:30N 34°43' E 135°21'0 0.0
2014-Apr-14 15:30N 34°43' E 135°21'0 0.0
2014-Apr-14 14:30N 34°43' E 135°21'0 0.0
2014-Apr-14 11:30N 34°43' E 135°21'2 1.7
2014-Apr-14 10:33N 34°42' E 135°20'0 0.1
2014-Apr-14 09:30N 34°41' E 135°21'0 0.3
2014-Apr-14 08:33N 34°41' E 135°21'6 6.0
2014-Apr-14 07:33N 34°36' E 135°24'183 4.3
2014-Apr-12 13:10N 34°47' E 139°07'16 9.6
2014-Apr-12 11:32N 34°57' E 139°21'9 9.1
2014-Apr-12 10:33N 35°02' E 139°30'10 9.5
2014-Apr-12 09:33N 35°06' E 139°40'9 9.4
2014-Apr-12 08:33N 35°15' E 139°46'10 9.7
2014-Apr-12 07:33N 35°24' E 139°43'4 4.1
2014-Apr-12 06:31N 35°28' E 139°43'0 0.0
2014-Apr-12 05:31N 35°28' E 139°43'0 0.0
2014-Apr-12 04:31N 35°28' E 139°43'0 0.0
2014-Apr-12 03:31N 35°28' E 139°43'0 0.0
2014-Apr-12 02:31N 35°28' E 139°43'0 0.0
2014-Apr-12 01:31N 35°28' E 139°43'0 0.0
2014-Apr-12 00:31N 35°28' E 139°43'0 0.2
2014-Apr-11 23:33N 35°28' E 139°42'6 6.1
2014-Apr-11 22:34N 35°29' E 139°50'10 9.5
2014-Apr-11 21:33N 35°34' E 139°60'6 5.7
2014-Apr-11 20:33N 35°33' E 140°07'0 0.0
2014-Apr-11 19:31N 35°33' E 140°07'0 0.0
2014-Apr-11 18:31N 35°33' E 140°07'0 0.0
2014-Apr-11 17:28N 35°33' E 140°07'0 0.0
2014-Apr-11 16:31N 35°33' E 140°07'0 0.0
2014-Apr-11 15:10N 35°33' E 140°07'0 0.0
2014-Apr-11 14:28N 35°33' E 140°07'0 0.0
2014-Apr-11 13:31N 35°33' E 140°07'0 0.0
2014-Apr-11 12:19N 35°33' E 140°07'0 0.0
2014-Apr-11 11:31N 35°33' E 140°07'0 0.0
2014-Apr-11 10:33N 35°33' E 140°07'5 5.0
2014-Apr-11 09:34N 35°33' E 140°01'5 4.9
2014-Apr-11 08:33N 35°35' E 140°06'0 0.1
2014-Apr-11 07:33N 35°35' E 140°06'0 0.0
2014-Apr-11 06:33N 35°35' E 140°06'0 0.0
2014-Apr-11 05:33N 35°35' E 140°06'0 0.0
2014-Apr-11 04:33N 35°35' E 140°06'0 0.0
2014-Apr-11 03:33N 35°35' E 140°06'3 3.1
2014-Apr-11 02:33N 35°35' E 140°03'7 6.9
2014-Apr-11 01:33N 35°31' E 139°56'7 7.4
2014-Apr-11 00:33N 35°27' E 139°48'4 4.2
2014-Apr-10 23:32N 35°28' E 139°43'0 0.0
2014-Apr-10 22:29N 35°28' E 139°43'0 0.0
2014-Apr-10 21:32N 35°28' E 139°43'0 0.0
2014-Apr-10 20:32N 35°28' E 139°43'0 0.0
2014-Apr-10 19:29N 35°28' E 139°43'0 0.1
2014-Apr-10 18:33N 35°28' E 139°43'3 2.8
2014-Apr-10 17:33N 35°26' E 139°45'  

Dump ship's entire track history

sailing weather and tide predictions

Yahata Maru — JL6477 — position and weather